createdAt,value
2019-02-27T00:00:11.419Z,32.90
2019-02-27T00:01:09.404Z,32.10
2019-02-27T00:02:09.422Z,36.50
2019-02-27T00:03:09.380Z,33.00
2019-02-27T00:04:09.367Z,35.90
2019-02-27T00:05:09.452Z,42.70
2019-02-27T00:06:09.357Z,39.40
2019-02-27T00:07:09.358Z,35.40
2019-02-27T00:08:09.323Z,35.20
2019-02-27T00:09:09.311Z,31.70
2019-02-27T00:10:09.300Z,35.00
2019-02-27T00:11:09.949Z,32.40
2019-02-27T00:12:09.315Z,28.60
2019-02-27T00:13:09.273Z,30.20
2019-02-27T00:14:09.265Z,26.20
2019-02-27T00:15:09.249Z,24.50
2019-02-27T00:16:11.025Z,27.90
2019-02-27T00:17:09.224Z,27.50
2019-02-27T00:18:09.257Z,26.70
2019-02-27T00:19:09.207Z,30.30
2019-02-27T00:20:09.205Z,30.40
2019-02-27T00:21:10.990Z,33.70
2019-02-27T00:22:09.168Z,31.90
2019-02-27T00:23:09.198Z,32.30
2019-02-27T00:24:09.154Z,33.20
2019-02-27T00:25:09.156Z,32.60
2019-02-27T00:26:09.570Z,32.50
2019-02-27T00:27:09.127Z,32.30
2019-02-27T00:28:09.143Z,31.40
2019-02-27T00:29:09.094Z,32.90
2019-02-27T00:30:09.091Z,33.50
2019-02-27T00:31:11.455Z,33.40
2019-02-27T00:32:09.078Z,31.30
2019-02-27T00:33:09.080Z,33.30
2019-02-27T00:34:09.045Z,32.90
2019-02-27T00:35:09.042Z,32.30
2019-02-27T00:36:11.990Z,32.80
2019-02-27T00:37:09.060Z,32.40
2019-02-27T00:38:09.017Z,32.40
2019-02-27T00:39:09.006Z,31.00
2019-02-27T00:40:08.980Z,39.30
2019-02-27T00:41:12.035Z,45.70
2019-02-27T00:42:08.991Z,41.30
2019-02-27T00:43:09.002Z,40.80
2019-02-27T00:44:08.983Z,52.90
2019-02-27T00:45:08.943Z,81.70
2019-02-27T00:46:10.702Z,66.30
2019-02-27T00:47:08.908Z,61.30
2019-02-27T00:48:08.970Z,65.00
2019-02-27T00:49:08.914Z,73.20
2019-02-27T00:50:08.900Z,89.80
2019-02-27T00:51:09.607Z,85.90
2019-02-27T00:52:08.881Z,69.50
2019-02-27T00:53:08.903Z,53.40
2019-02-27T00:54:08.854Z,57.80
2019-02-27T00:55:08.880Z,46.40
2019-02-27T00:56:11.958Z,41.80
2019-02-27T00:57:08.835Z,39.00
2019-02-27T00:58:08.912Z,38.20
2019-02-27T00:59:08.794Z,37.60
2019-02-27T01:00:08.808Z,37.40
2019-02-27T01:01:10.019Z,35.80
2019-02-27T01:02:08.771Z,34.70
2019-02-27T01:03:08.788Z,34.50
2019-02-27T01:04:08.737Z,36.30
2019-02-27T01:05:09.400Z,46.60
2019-02-27T01:06:08.733Z,54.50
2019-02-27T01:07:08.705Z,66.60
2019-02-27T01:08:08.760Z,71.40
2019-02-27T01:09:08.671Z,77.40
2019-02-27T01:10:11.954Z,56.50
2019-02-27T01:11:08.673Z,37.00
2019-02-27T01:12:08.657Z,35.70
2019-02-27T01:13:08.665Z,34.80
2019-02-27T01:14:08.636Z,34.70
2019-02-27T01:15:10.632Z,34.20
2019-02-27T01:16:08.596Z,33.50
2019-02-27T01:17:08.582Z,33.80
2019-02-27T01:18:08.601Z,33.00
2019-02-27T01:19:08.550Z,34.10
2019-02-27T01:20:11.246Z,23.00
2019-02-27T01:21:08.530Z,22.70
2019-02-27T01:22:08.530Z,22.20
2019-02-27T01:23:10.871Z,21.80
2019-02-27T01:24:08.532Z,23.30
2019-02-27T01:25:08.486Z,22.70
2019-02-27T01:26:08.475Z,20.90
2019-02-27T01:27:08.476Z,21.50
2019-02-27T01:28:10.818Z,20.80
2019-02-27T01:29:08.497Z,21.80
2019-02-27T01:30:08.439Z,20.60
2019-02-27T01:31:08.429Z,24.40
2019-02-27T01:32:08.410Z,25.30
2019-02-27T01:33:08.401Z,23.90
2019-02-27T01:34:11.107Z,22.60
2019-02-27T01:35:08.414Z,22.70
2019-02-27T01:36:08.374Z,21.90
2019-02-27T01:37:08.363Z,22.80
2019-02-27T01:38:08.353Z,22.70
2019-02-27T01:39:09.028Z,21.90
2019-02-27T01:40:08.354Z,23.10
2019-02-27T01:41:08.347Z,24.20
2019-02-27T01:42:08.309Z,24.40
2019-02-27T01:43:08.293Z,22.10
2019-02-27T01:44:08.283Z,23.70
2019-02-27T01:45:08.304Z,22.70
2019-02-27T01:46:08.260Z,23.50
2019-02-27T01:47:08.254Z,25.00
2019-02-27T01:48:09.288Z,23.50
2019-02-27T01:49:08.232Z,22.50
2019-02-27T01:50:08.222Z,21.00
2019-02-27T01:51:08.237Z,23.30
2019-02-27T01:52:08.194Z,24.10
2019-02-27T01:53:08.199Z,22.80
2019-02-27T01:54:08.171Z,22.10
2019-02-27T01:55:08.170Z,22.90
2019-02-27T01:56:08.185Z,21.70
2019-02-27T01:57:08.139Z,21.70
2019-02-27T01:58:09.552Z,21.30
2019-02-27T01:59:08.122Z,24.10
2019-02-27T02:00:08.111Z,20.80
2019-02-27T02:01:08.143Z,22.60
2019-02-27T02:02:08.097Z,22.40
2019-02-27T02:03:08.076Z,22.50
2019-02-27T02:04:08.064Z,21.40
2019-02-27T02:05:08.052Z,20.80
2019-02-27T02:06:08.071Z,21.50
2019-02-27T02:07:08.044Z,20.50
2019-02-27T02:08:08.028Z,20.60
2019-02-27T02:09:08.017Z,20.60
2019-02-27T02:10:08.025Z,20.10
2019-02-27T02:11:07.991Z,21.30
2019-02-27T02:12:08.736Z,19.90
2019-02-27T02:13:07.977Z,19.80
2019-02-27T02:14:07.962Z,20.90
2019-02-27T02:15:07.946Z,19.10
2019-02-27T02:16:07.967Z,19.90
2019-02-27T02:17:08.059Z,21.20
2019-02-27T02:18:07.913Z,20.60
2019-02-27T02:19:07.907Z,20.70
2019-02-27T02:20:07.901Z,20.00
2019-02-27T02:21:07.911Z,20.40
2019-02-27T02:22:08.894Z,20.30
2019-02-27T02:23:07.857Z,20.00
2019-02-27T02:24:07.879Z,20.40
2019-02-27T02:25:07.847Z,20.20
2019-02-27T02:26:07.870Z,21.10
2019-02-27T02:27:08.771Z,21.10
2019-02-27T02:28:07.811Z,22.00
2019-02-27T02:29:07.793Z,20.30
2019-02-27T02:30:07.784Z,22.00
2019-02-27T02:31:07.780Z,21.20
2019-02-27T02:32:07.824Z,20.40
2019-02-27T02:33:07.759Z,20.10
2019-02-27T02:34:07.765Z,19.80
2019-02-27T02:35:07.735Z,21.30
2019-02-27T02:36:07.720Z,20.00
2019-02-27T02:37:07.709Z,19.80
2019-02-27T02:38:12.079Z,20.30
2019-02-27T02:39:08.778Z,20.10
2019-02-27T02:40:07.681Z,21.50
2019-02-27T02:41:08.456Z,19.50
2019-02-27T02:42:07.659Z,21.80
2019-02-27T02:43:07.684Z,20.70
2019-02-27T02:44:07.636Z,20.90
2019-02-27T02:45:07.629Z,20.40
2019-02-27T02:46:08.605Z,19.70
2019-02-27T02:47:07.605Z,20.70
2019-02-27T02:48:07.589Z,20.70
2019-02-27T02:49:08.554Z,20.20
2019-02-27T02:50:07.568Z,20.30
2019-02-27T02:51:07.566Z,20.40
2019-02-27T02:52:07.554Z,21.50
2019-02-27T02:53:07.540Z,20.70
2019-02-27T02:54:07.558Z,19.40
2019-02-27T02:55:11.996Z,20.60
2019-02-27T02:56:07.502Z,19.60
2019-02-27T02:57:07.526Z,20.70
2019-02-27T02:58:07.984Z,20.00
2019-02-27T02:59:07.509Z,19.60
2019-02-27T03:00:07.465Z,20.80
2019-02-27T03:01:14.113Z,19.30
2019-02-27T03:02:08.438Z,20.00
2019-02-27T03:03:07.434Z,19.50
2019-02-27T03:04:12.533Z,20.10
2019-02-27T03:05:08.441Z,19.10
2019-02-27T03:06:07.402Z,20.60
2019-02-27T03:07:10.907Z,20.40
2019-02-27T03:08:07.371Z,20.20
2019-02-27T03:09:07.367Z,19.70
2019-02-27T03:10:08.259Z,20.40
2019-02-27T03:11:07.380Z,20.70
2019-02-27T03:12:07.337Z,21.20
2019-02-27T03:13:07.512Z,19.90
2019-02-27T03:14:07.315Z,19.60
2019-02-27T03:15:07.304Z,20.60
2019-02-27T03:16:07.333Z,20.00
2019-02-27T03:17:07.288Z,20.10
2019-02-27T03:18:07.271Z,20.60
2019-02-27T03:19:07.252Z,21.50
2019-02-27T03:20:07.245Z,20.20
2019-02-27T03:21:07.266Z,20.20
2019-02-27T03:22:07.226Z,19.40
2019-02-27T03:23:07.225Z,20.20
2019-02-27T03:24:07.205Z,20.80
2019-02-27T03:25:07.200Z,20.80
2019-02-27T03:26:07.189Z,20.10
2019-02-27T03:27:07.210Z,20.00
2019-02-27T03:28:07.163Z,20.40
2019-02-27T03:29:07.155Z,19.90
2019-02-27T03:30:07.136Z,20.20
2019-02-27T03:31:16.378Z,19.60
2019-02-27T03:32:08.163Z,20.30
2019-02-27T03:33:07.106Z,20.40
2019-02-27T03:34:09.072Z,19.10
2019-02-27T03:35:07.090Z,20.10
2019-02-27T03:36:07.078Z,20.40
2019-02-27T03:37:07.099Z,19.50
2019-02-27T03:38:07.060Z,20.30
2019-02-27T03:39:07.040Z,20.70
2019-02-27T03:40:10.767Z,20.30
2019-02-27T03:41:07.017Z,20.90
2019-02-27T03:42:13.835Z,19.60
2019-02-27T03:43:10.226Z,19.80
2019-02-27T03:44:06.986Z,20.40
2019-02-27T03:45:06.978Z,21.80
2019-02-27T03:46:07.223Z,20.80
2019-02-27T03:47:06.961Z,21.60
2019-02-27T03:48:06.977Z,21.00
2019-02-27T03:49:06.932Z,20.50
2019-02-27T03:50:06.966Z,21.70
2019-02-27T03:51:06.916Z,20.00
2019-02-27T03:52:06.906Z,20.50
2019-02-27T03:53:10.766Z,20.60
2019-02-27T03:54:06.883Z,20.00
2019-02-27T03:55:06.889Z,20.60
2019-02-27T03:56:09.729Z,19.50
2019-02-27T03:57:06.853Z,20.10
2019-02-27T03:58:06.831Z,20.90
2019-02-27T03:59:07.508Z,22.00
2019-02-27T04:00:06.846Z,21.90
2019-02-27T04:01:06.810Z,21.00
2019-02-27T04:02:06.928Z,20.70
2019-02-27T04:03:06.784Z,19.80
2019-02-27T04:04:06.767Z,21.20
2019-02-27T04:05:07.527Z,21.20
2019-02-27T04:06:06.804Z,20.70
2019-02-27T04:07:06.737Z,22.90
2019-02-27T04:08:08.511Z,22.20
2019-02-27T04:09:06.718Z,21.00
2019-02-27T04:10:06.707Z,22.10
2019-02-27T04:11:06.829Z,22.30
2019-02-27T04:12:06.731Z,22.80
2019-02-27T04:13:06.678Z,21.20
2019-02-27T04:14:06.667Z,23.20
2019-02-27T04:15:06.651Z,20.50
2019-02-27T04:16:06.641Z,21.50
2019-02-27T04:17:07.664Z,21.70
2019-02-27T04:18:06.616Z,22.10
2019-02-27T04:19:06.620Z,22.50
2019-02-27T04:20:06.602Z,25.70
2019-02-27T04:21:06.587Z,25.80
2019-02-27T04:22:06.595Z,25.90
2019-02-27T04:23:11.284Z,24.40
2019-02-27T04:24:07.557Z,24.00
2019-02-27T04:25:06.554Z,24.80
2019-02-27T04:26:06.737Z,26.60
2019-02-27T04:27:06.561Z,24.20
2019-02-27T04:28:06.530Z,25.40
2019-02-27T04:29:08.538Z,23.90
2019-02-27T04:30:06.494Z,27.40
2019-02-27T04:31:06.481Z,26.80
2019-02-27T04:32:09.624Z,28.90
2019-02-27T04:33:07.503Z,29.90
2019-02-27T04:34:06.457Z,27.40
2019-02-27T04:35:06.923Z,27.60
2019-02-27T04:36:06.422Z,29.50
2019-02-27T04:37:06.418Z,25.40
2019-02-27T04:38:06.464Z,23.20
2019-02-27T04:39:06.395Z,21.70
2019-02-27T04:40:06.386Z,23.00
2019-02-27T04:41:06.367Z,23.50
2019-02-27T04:42:06.356Z,21.80
2019-02-27T04:43:06.354Z,22.10
2019-02-27T04:44:06.384Z,24.60
2019-02-27T04:45:06.336Z,21.50
2019-02-27T04:46:06.361Z,23.40
2019-02-27T04:47:06.305Z,22.20
2019-02-27T04:48:06.293Z,20.60
2019-02-27T04:49:06.323Z,21.20
2019-02-27T04:50:06.320Z,23.20
2019-02-27T04:51:06.266Z,21.90
2019-02-27T04:52:06.255Z,22.50
2019-02-27T04:53:06.243Z,21.00
2019-02-27T04:54:07.391Z,21.90
2019-02-27T04:55:06.256Z,25.10
2019-02-27T04:56:06.232Z,23.80
2019-02-27T04:57:06.204Z,23.80
2019-02-27T04:58:08.549Z,22.20
2019-02-27T04:59:06.176Z,24.00
2019-02-27T05:00:06.193Z,20.60
2019-02-27T05:01:06.194Z,21.50
2019-02-27T05:02:06.142Z,21.70
2019-02-27T05:03:06.137Z,22.70
2019-02-27T05:04:06.132Z,23.00
2019-02-27T05:05:08.518Z,21.70
2019-02-27T05:06:06.153Z,23.00
2019-02-27T05:07:06.089Z,21.60
2019-02-27T05:08:06.079Z,21.70
2019-02-27T05:09:06.074Z,21.90
2019-02-27T05:10:07.330Z,22.70
2019-02-27T05:11:06.048Z,21.30
2019-02-27T05:12:06.079Z,21.90
2019-02-27T05:13:06.031Z,21.90
2019-02-27T05:14:06.017Z,22.10
2019-02-27T05:15:06.011Z,20.80
2019-02-27T05:16:06.005Z,21.60
2019-02-27T05:17:06.022Z,21.50
2019-02-27T05:18:05.977Z,19.70
2019-02-27T05:19:05.962Z,21.20
2019-02-27T05:20:05.948Z,22.30
2019-02-27T05:21:05.939Z,20.20
2019-02-27T05:22:05.971Z,22.80
2019-02-27T05:23:05.924Z,23.70
2019-02-27T05:24:07.875Z,20.30
2019-02-27T05:25:05.894Z,23.20
2019-02-27T05:26:05.888Z,24.40
2019-02-27T05:27:05.880Z,19.80
2019-02-27T05:28:05.909Z,20.10
2019-02-27T05:29:05.870Z,19.20
2019-02-27T05:30:05.850Z,18.20
2019-02-27T05:31:05.836Z,18.80
2019-02-27T05:32:05.819Z,18.20
2019-02-27T05:33:05.811Z,18.00
2019-02-27T05:34:05.836Z,18.10
2019-02-27T05:35:05.799Z,19.00
2019-02-27T05:36:05.781Z,19.90
2019-02-27T05:37:06.012Z,18.60
2019-02-27T05:38:05.760Z,20.00
2019-02-27T05:39:05.773Z,18.80
2019-02-27T05:40:05.734Z,17.50
2019-02-27T05:41:05.727Z,16.30
2019-02-27T05:42:06.435Z,18.00
2019-02-27T05:43:05.712Z,17.80
2019-02-27T05:44:05.731Z,18.40
2019-02-27T05:45:05.678Z,18.20
2019-02-27T05:46:05.672Z,17.30
2019-02-27T05:47:05.665Z,17.00
2019-02-27T05:48:05.650Z,17.40
2019-02-27T05:49:05.695Z,18.10
2019-02-27T05:50:05.631Z,17.10
2019-02-27T05:51:07.540Z,17.60
2019-02-27T05:52:05.608Z,17.00
2019-02-27T05:53:05.590Z,16.80
2019-02-27T05:54:05.588Z,17.70
2019-02-27T05:55:06.406Z,19.70
2019-02-27T05:56:05.570Z,19.40
2019-02-27T05:57:05.546Z,19.60
2019-02-27T05:58:05.538Z,16.80
2019-02-27T05:59:05.573Z,17.70
2019-02-27T06:00:07.041Z,17.90
2019-02-27T06:01:05.851Z,18.00
2019-02-27T06:02:05.497Z,18.10
2019-02-27T06:03:05.485Z,18.90
2019-02-27T06:04:05.474Z,18.40
2019-02-27T06:05:05.500Z,17.80
2019-02-27T06:06:06.737Z,17.40
2019-02-27T06:07:05.445Z,18.50
2019-02-27T06:08:05.437Z,19.70
2019-02-27T06:09:05.425Z,18.30
2019-02-27T06:10:05.491Z,19.40
2019-02-27T06:11:05.426Z,17.30
2019-02-27T06:12:07.030Z,17.50
2019-02-27T06:13:05.398Z,16.60
2019-02-27T06:14:05.371Z,16.00
2019-02-27T06:15:05.352Z,15.60
2019-02-27T06:16:08.856Z,16.30
2019-02-27T06:17:05.363Z,16.50
2019-02-27T06:18:05.326Z,16.10
2019-02-27T06:19:05.336Z,16.40
2019-02-27T06:20:07.640Z,15.20
2019-02-27T06:21:05.288Z,15.80
2019-02-27T06:22:05.956Z,16.00
2019-02-27T06:23:07.214Z,16.40
2019-02-27T06:24:05.259Z,16.00
2019-02-27T06:25:05.246Z,16.10
2019-02-27T06:26:05.237Z,15.70
2019-02-27T06:27:06.369Z,15.50
2019-02-27T06:28:05.220Z,15.10
2019-02-27T06:29:05.217Z,14.70
2019-02-27T06:30:05.190Z,14.30
2019-02-27T06:31:05.189Z,15.40
2019-02-27T06:32:05.182Z,14.70
2019-02-27T06:33:05.194Z,15.90
2019-02-27T06:34:05.187Z,15.70
2019-02-27T06:35:05.142Z,15.10
2019-02-27T06:36:05.334Z,16.10
2019-02-27T06:37:05.126Z,14.60
2019-02-27T06:38:05.156Z,14.90
2019-02-27T06:39:05.097Z,14.40
2019-02-27T06:40:07.404Z,16.50
2019-02-27T06:41:05.102Z,16.20
2019-02-27T06:42:05.120Z,15.30
2019-02-27T06:43:05.082Z,16.30
2019-02-27T06:44:05.040Z,16.20
2019-02-27T06:45:05.052Z,16.80
2019-02-27T06:46:05.026Z,18.30
2019-02-27T06:47:07.122Z,18.60
2019-02-27T06:48:09.344Z,17.90
2019-02-27T06:49:06.028Z,18.80
2019-02-27T06:50:04.989Z,18.60
2019-02-27T06:51:04.978Z,18.30
2019-02-27T06:52:08.960Z,18.60
2019-02-27T06:53:04.954Z,16.70
2019-02-27T06:54:04.983Z,16.20
2019-02-27T06:55:04.918Z,14.90
2019-02-27T06:56:04.909Z,14.10
2019-02-27T06:57:07.486Z,13.40
2019-02-27T06:58:04.899Z,13.50
2019-02-27T06:59:04.914Z,13.30
2019-02-27T07:00:04.901Z,13.10
2019-02-27T07:01:09.154Z,12.80
2019-02-27T07:02:05.843Z,14.20
2019-02-27T07:03:04.841Z,14.00
2019-02-27T07:04:05.466Z,13.20
2019-02-27T07:05:04.899Z,13.40
2019-02-27T07:06:04.843Z,13.60
2019-02-27T07:07:04.825Z,14.30
2019-02-27T07:08:05.320Z,13.50
2019-02-27T07:09:04.787Z,13.10
2019-02-27T07:10:04.850Z,14.10
2019-02-27T07:11:10.651Z,14.30
2019-02-27T07:12:07.257Z,14.40
2019-02-27T07:13:04.746Z,13.30
2019-02-27T07:14:04.762Z,13.60
2019-02-27T07:15:04.752Z,13.30
2019-02-27T07:16:04.764Z,13.10
2019-02-27T07:17:04.712Z,12.30
2019-02-27T07:18:06.081Z,13.30
2019-02-27T07:19:04.700Z,13.40
2019-02-27T07:20:04.736Z,13.00
2019-02-27T07:21:04.676Z,13.70
2019-02-27T07:22:06.299Z,12.40
2019-02-27T07:23:04.663Z,12.70
2019-02-27T07:24:04.653Z,12.10
2019-02-27T07:25:06.649Z,13.20
2019-02-27T07:26:04.671Z,13.00
2019-02-27T07:27:04.632Z,13.00
2019-02-27T07:28:08.398Z,12.70
2019-02-27T07:29:04.579Z,12.70
2019-02-27T07:30:04.913Z,12.60
2019-02-27T07:31:04.606Z,13.50
2019-02-27T07:32:04.580Z,12.80
2019-02-27T07:33:06.682Z,13.00
2019-02-27T07:34:04.505Z,13.40
2019-02-27T07:35:04.496Z,14.20
2019-02-27T07:36:04.515Z,12.80
2019-02-27T07:37:04.477Z,13.10
2019-02-27T07:38:04.463Z,13.00
2019-02-27T07:39:04.446Z,14.30
2019-02-27T07:40:08.070Z,13.80
2019-02-27T07:41:04.428Z,13.50
2019-02-27T07:42:04.439Z,13.80
2019-02-27T07:43:05.728Z,13.70
2019-02-27T07:44:04.398Z,13.20
2019-02-27T07:45:04.386Z,11.80
2019-02-27T07:46:04.378Z,12.20
2019-02-27T07:47:04.397Z,13.30
2019-02-27T07:48:04.349Z,12.50
2019-02-27T07:49:04.340Z,12.40
2019-02-27T07:50:06.394Z,12.40
2019-02-27T07:51:04.320Z,12.60
2019-02-27T07:52:04.307Z,12.20
2019-02-27T07:53:04.333Z,13.00
2019-02-27T07:54:04.287Z,12.00
2019-02-27T07:55:15.454Z,11.90
2019-02-27T07:56:05.271Z,12.20
2019-02-27T07:57:04.260Z,12.40
2019-02-27T07:58:04.295Z,12.10
2019-02-27T07:59:04.230Z,13.00
2019-02-27T08:00:04.231Z,12.70
2019-02-27T08:01:04.732Z,12.50
2019-02-27T08:02:04.198Z,11.90
2019-02-27T08:03:09.094Z,12.30
2019-02-27T08:04:04.222Z,11.80
2019-02-27T08:05:04.197Z,12.10
2019-02-27T08:06:04.154Z,12.10
2019-02-27T08:07:04.151Z,12.20
2019-02-27T08:08:04.169Z,12.80
2019-02-27T08:09:04.175Z,11.60
2019-02-27T08:10:04.793Z,12.10
2019-02-27T08:11:04.139Z,12.40
2019-02-27T08:12:04.114Z,12.50
2019-02-27T08:13:04.163Z,13.40
2019-02-27T08:14:04.238Z,12.30
2019-02-27T08:15:04.492Z,12.90
2019-02-27T08:16:04.111Z,12.00
2019-02-27T08:17:16.762Z,12.80
2019-02-27T08:18:05.133Z,11.80
2019-02-27T08:19:04.083Z,13.00
2019-02-27T08:20:04.032Z,12.40
2019-02-27T08:21:04.015Z,12.20
2019-02-27T08:22:04.001Z,12.00
2019-02-27T08:23:03.996Z,13.40
2019-02-27T08:24:07.351Z,12.10
2019-02-27T08:25:04.035Z,12.60
2019-02-27T08:26:05.075Z,11.80
2019-02-27T08:27:03.994Z,11.70
2019-02-27T08:28:03.930Z,11.70
2019-02-27T08:29:03.934Z,12.30
2019-02-27T08:30:03.956Z,11.80
2019-02-27T08:31:03.947Z,12.90
2019-02-27T08:32:05.416Z,12.50
2019-02-27T08:33:08.152Z,13.30
2019-02-27T08:34:04.859Z,13.00
2019-02-27T08:35:03.884Z,12.90
2019-02-27T08:36:03.874Z,13.20
2019-02-27T08:37:03.842Z,12.50
2019-02-27T08:38:03.824Z,12.50
2019-02-27T08:39:03.839Z,12.60
2019-02-27T08:40:03.834Z,11.60
2019-02-27T08:41:03.822Z,12.90
2019-02-27T08:42:04.136Z,12.10
2019-02-27T08:43:12.445Z,12.40
2019-02-27T08:44:03.747Z,13.00
2019-02-27T08:45:03.734Z,12.90
2019-02-27T08:46:03.762Z,13.40
2019-02-27T08:47:04.330Z,12.30
2019-02-27T08:48:03.701Z,12.20
2019-02-27T08:49:03.692Z,12.40
2019-02-27T08:50:03.680Z,12.30
2019-02-27T08:51:08.392Z,13.20
2019-02-27T08:52:04.697Z,13.10
2019-02-27T08:53:03.647Z,13.20
2019-02-27T08:54:03.640Z,13.60
2019-02-27T08:55:05.619Z,12.60
2019-02-27T08:56:03.617Z,13.00
2019-02-27T08:57:03.631Z,13.00
2019-02-27T08:58:03.587Z,12.50
2019-02-27T08:59:05.775Z,13.00
2019-02-27T09:00:03.570Z,13.50
2019-02-27T09:01:03.562Z,12.70
2019-02-27T09:02:03.612Z,13.00
2019-02-27T09:03:03.793Z,13.50
2019-02-27T09:04:03.570Z,14.60
2019-02-27T09:05:03.560Z,14.20
2019-02-27T09:06:03.538Z,14.50
2019-02-27T09:07:03.592Z,14.80
2019-02-27T09:08:03.509Z,14.10
2019-02-27T09:09:03.508Z,13.70
2019-02-27T09:10:03.460Z,14.50
2019-02-27T09:11:06.528Z,15.20
2019-02-27T09:12:03.435Z,14.30
2019-02-27T09:13:05.774Z,14.50
2019-02-27T09:14:03.437Z,15.10
2019-02-27T09:15:03.413Z,15.00
2019-02-27T09:16:03.442Z,14.90
2019-02-27T09:17:03.480Z,13.90
2019-02-27T09:18:03.469Z,15.00
2019-02-27T09:19:03.385Z,15.30
2019-02-27T09:20:03.483Z,15.50
2019-02-27T09:21:03.479Z,14.40
2019-02-27T09:22:03.383Z,14.80
2019-02-27T09:23:03.411Z,15.40
2019-02-27T09:24:04.125Z,14.30
2019-02-27T09:25:03.438Z,14.00
2019-02-27T09:26:03.541Z,15.50
2019-02-27T09:27:03.318Z,14.60
2019-02-27T09:28:03.608Z,15.50
2019-02-27T09:29:03.369Z,15.00
2019-02-27T09:30:03.285Z,14.10
2019-02-27T09:31:04.305Z,15.00
2019-02-27T09:32:03.267Z,14.60
2019-02-27T09:33:03.260Z,15.60
2019-02-27T09:34:03.252Z,15.50
2019-02-27T09:35:03.245Z,15.10
2019-02-27T09:36:03.202Z,14.30
2019-02-27T09:37:03.182Z,15.10
2019-02-27T09:38:03.167Z,14.10
2019-02-27T09:39:03.165Z,14.40
2019-02-27T09:40:05.732Z,15.10
2019-02-27T09:41:03.143Z,15.00
2019-02-27T09:42:03.146Z,14.40
2019-02-27T09:43:03.118Z,14.50
2019-02-27T09:44:03.106Z,14.10
2019-02-27T09:45:03.123Z,14.70
2019-02-27T09:46:03.114Z,14.10
2019-02-27T09:47:03.080Z,14.20
2019-02-27T09:48:03.071Z,14.20
2019-02-27T09:49:06.797Z,14.10
2019-02-27T09:50:03.090Z,13.90
2019-02-27T09:51:03.033Z,13.40
2019-02-27T09:52:03.023Z,13.90
2019-02-27T09:53:03.710Z,14.30
2019-02-27T09:54:03.039Z,14.30
2019-02-27T09:55:02.989Z,14.10
2019-02-27T09:56:03.011Z,13.20
2019-02-27T09:57:02.994Z,13.60
2019-02-27T09:58:02.972Z,14.40
2019-02-27T09:59:02.960Z,15.20
2019-02-27T10:00:04.121Z,14.60
2019-02-27T10:01:03.299Z,13.50
2019-02-27T10:02:02.920Z,13.40
2019-02-27T10:03:02.942Z,12.40
2019-02-27T10:04:02.899Z,12.20
2019-02-27T10:05:03.765Z,12.70
2019-02-27T10:06:02.916Z,12.60
2019-02-27T10:07:02.875Z,12.60
2019-02-27T10:08:02.861Z,11.40
2019-02-27T10:09:02.855Z,12.40
2019-02-27T10:10:02.868Z,12.40
2019-02-27T10:11:02.833Z,12.60
2019-02-27T10:12:02.854Z,12.40
2019-02-27T10:13:04.009Z,12.90
2019-02-27T10:14:02.794Z,14.60
2019-02-27T10:15:02.783Z,12.30
2019-02-27T10:16:03.742Z,12.40
2019-02-27T10:17:02.820Z,13.10
2019-02-27T10:18:02.770Z,12.80
2019-02-27T10:19:02.850Z,11.80
2019-02-27T10:20:02.973Z,12.60
2019-02-27T10:21:02.726Z,12.90
2019-02-27T10:22:02.748Z,12.30
2019-02-27T10:23:02.703Z,12.70
2019-02-27T10:24:04.833Z,13.50
2019-02-27T10:25:02.692Z,13.00
2019-02-27T10:26:02.680Z,12.60
2019-02-27T10:27:03.207Z,13.00
2019-02-27T10:28:04.388Z,13.20
2019-02-27T10:29:02.641Z,12.20
2019-02-27T10:30:11.131Z,12.20
2019-02-27T10:31:03.637Z,12.60
2019-02-27T10:32:02.667Z,12.10
2019-02-27T10:33:03.568Z,11.90
2019-02-27T10:34:02.590Z,13.40
2019-02-27T10:35:02.586Z,12.50
2019-02-27T10:36:03.791Z,12.90
2019-02-27T10:37:02.654Z,12.00
2019-02-27T10:38:02.551Z,12.70
2019-02-27T10:39:02.819Z,12.10
2019-02-27T10:40:02.532Z,12.00
2019-02-27T10:41:02.521Z,11.50
2019-02-27T10:42:02.546Z,12.60
2019-02-27T10:43:02.500Z,14.00
2019-02-27T10:44:02.491Z,12.30
2019-02-27T10:45:02.473Z,12.30
2019-02-27T10:46:02.464Z,11.30
2019-02-27T10:47:02.461Z,14.00
2019-02-27T10:48:02.499Z,11.80
2019-02-27T10:49:02.505Z,11.00
2019-02-27T10:50:03.099Z,11.60
2019-02-27T10:51:02.420Z,10.80
2019-02-27T10:52:02.423Z,11.40
2019-02-27T10:53:02.385Z,10.80
2019-02-27T10:54:05.182Z,10.90
2019-02-27T10:55:02.373Z,11.10
2019-02-27T10:56:02.353Z,10.90
2019-02-27T10:57:02.353Z,11.00
2019-02-27T10:58:02.337Z,10.80
2019-02-27T10:59:10.430Z,9.80
2019-02-27T11:00:02.315Z,11.30
2019-02-27T11:01:11.051Z,11.40
2019-02-27T11:02:12.560Z,11.20
2019-02-27T11:03:11.125Z,10.10
2019-02-27T11:04:11.144Z,11.40
2019-02-27T11:05:10.359Z,10.10
2019-02-27T11:06:02.243Z,10.50
2019-02-27T11:07:02.251Z,11.00
2019-02-27T11:08:02.223Z,10.30
2019-02-27T11:09:04.501Z,10.20
2019-02-27T11:10:02.258Z,10.50
2019-02-27T11:11:02.194Z,10.50
2019-02-27T11:12:02.187Z,10.70
2019-02-27T11:13:05.417Z,10.50
2019-02-27T11:14:02.163Z,9.90
2019-02-27T11:15:02.165Z,10.50
2019-02-27T11:16:02.138Z,10.30
2019-02-27T11:17:03.236Z,9.80
2019-02-27T11:18:05.403Z,9.40
2019-02-27T11:19:02.104Z,9.20
2019-02-27T11:20:02.145Z,9.60
2019-02-27T11:21:02.088Z,9.80
2019-02-27T11:22:02.081Z,9.50
2019-02-27T11:23:06.423Z,9.20
2019-02-27T11:24:02.055Z,8.70
2019-02-27T11:25:02.080Z,9.20
2019-02-27T11:26:02.064Z,9.80
2019-02-27T11:27:03.501Z,9.40
2019-02-27T11:28:02.019Z,9.00
2019-02-27T11:29:02.002Z,8.50
2019-02-27T11:30:03.059Z,8.20
2019-02-27T11:31:02.027Z,8.90
2019-02-27T11:32:01.972Z,8.50
2019-02-27T11:33:01.958Z,8.70
2019-02-27T11:34:01.942Z,8.30
2019-02-27T11:35:01.938Z,8.30
2019-02-27T11:36:03.211Z,7.90
2019-02-27T11:37:01.906Z,7.90
2019-02-27T11:38:01.899Z,9.30
2019-02-27T11:39:01.882Z,9.20
2019-02-27T11:40:01.881Z,8.50
2019-02-27T11:41:02.170Z,8.60
2019-02-27T11:42:01.948Z,8.90
2019-02-27T11:43:06.285Z,8.70
2019-02-27T11:44:02.840Z,8.90
2019-02-27T11:45:01.816Z,8.40
2019-02-27T11:46:01.807Z,8.10
2019-02-27T11:47:01.837Z,8.30
2019-02-27T11:48:01.787Z,8.10
2019-02-27T11:49:03.193Z,8.60
2019-02-27T11:50:01.769Z,9.70
2019-02-27T11:51:01.778Z,8.20
2019-02-27T11:52:01.799Z,8.60
2019-02-27T11:53:02.899Z,9.10
2019-02-27T11:54:01.775Z,8.60
2019-02-27T11:55:01.735Z,8.10
2019-02-27T11:56:01.715Z,7.80
2019-02-27T11:57:01.746Z,8.10
2019-02-27T11:58:04.420Z,7.80
2019-02-27T11:59:01.713Z,7.70
2019-02-27T12:00:01.667Z,8.10
2019-02-27T12:01:01.655Z,8.30
2019-02-27T12:02:01.694Z,8.90
2019-02-27T12:03:01.635Z,7.20
2019-02-27T12:04:01.664Z,7.70
2019-02-27T12:05:01.607Z,8.20
2019-02-27T12:06:01.596Z,7.90
2019-02-27T12:07:01.618Z,7.40
2019-02-27T12:08:01.577Z,8.00
2019-02-27T12:09:01.573Z,7.90
2019-02-27T12:10:01.559Z,8.20
2019-02-27T12:11:01.553Z,8.30
2019-02-27T12:12:01.529Z,8.70
2019-02-27T12:13:01.830Z,8.00
2019-02-27T12:14:01.544Z,7.70
2019-02-27T12:15:01.530Z,8.50
2019-02-27T12:16:02.256Z,8.10
2019-02-27T12:17:01.510Z,7.70
2019-02-27T12:18:01.886Z,7.70
2019-02-27T12:19:01.454Z,7.80
2019-02-27T12:20:01.446Z,7.90
2019-02-27T12:21:01.455Z,8.00
2019-02-27T12:22:01.427Z,7.90
2019-02-27T12:23:01.447Z,8.00
2019-02-27T12:24:01.410Z,7.70
2019-02-27T12:25:01.395Z,7.70
2019-02-27T12:26:02.435Z,8.10
2019-02-27T12:27:01.375Z,6.80
2019-02-27T12:28:01.404Z,7.40
2019-02-27T12:29:01.358Z,7.50
2019-02-27T12:30:03.039Z,7.20
2019-02-27T12:31:01.324Z,7.50
2019-02-27T12:32:01.312Z,6.80
2019-02-27T12:33:01.335Z,7.80
2019-02-27T12:34:03.256Z,7.20
2019-02-27T12:35:03.093Z,7.50
2019-02-27T12:36:01.277Z,7.10
2019-02-27T12:37:01.262Z,6.50
2019-02-27T12:38:01.247Z,7.60
2019-02-27T12:39:01.282Z,7.10
2019-02-27T12:40:01.233Z,7.20
2019-02-27T12:41:01.226Z,6.80
2019-02-27T12:42:01.229Z,7.10
2019-02-27T12:43:01.198Z,7.70
2019-02-27T12:44:01.249Z,7.00
2019-02-27T12:45:01.209Z,7.10
2019-02-27T12:46:01.713Z,7.40
2019-02-27T12:47:01.168Z,8.50
2019-02-27T12:48:01.150Z,7.90
2019-02-27T12:49:01.176Z,8.50
2019-02-27T12:50:01.176Z,8.40
2019-02-27T12:51:03.483Z,7.90
2019-02-27T12:52:01.129Z,8.30
2019-02-27T12:53:01.112Z,8.20
2019-02-27T12:54:01.113Z,7.80
2019-02-27T12:55:01.802Z,7.50